This is the latest recevied weather packets stored in our database for station/object KO4ILY. If no packets are shown the sender has not sent any weather packets the latest 10 day(s).
| Time | Temp. | Humidity | Pressure | Rain* | Wind** | Luminosity | Snow |
|---|---|---|---|---|---|---|---|
| 1787788806 | 25° C | 73% | 1013.4 hPa | 0 mm | - | - | - |
| 1787785205 | 26.11° C | 71% | 1014 hPa | 0 mm | - | - | - |
| 1787781605 | 28.89° C | 64% | 1013.9 hPa | 0 mm | - | - | - |
| 1787778005 | 30.56° C | 60% | 1013.8 hPa | 0 mm | - | - | - |
| 1787774405 | 31.67° C | 57% | 1013.7 hPa | 0 mm | - | - | - |
| 1787770805 | 32.22° C | 51% | 1014.2 hPa | 0 mm | - | - | - |
| 1787767205 | 30.56° C | 58% | 1015.3 hPa | 0 mm | - | - | - |
| 1787763605 | 29.44° C | 57% | 1015.7 hPa | 0 mm | - | - | - |
| 1787760005 | 27.78° C | 64% | 1016 hPa | 0 mm | - | - | - |
| 1787756405 | 25.56° C | 70% | 1016.7 hPa | 0 mm | - | - | - |
| 1787752805 | 23.33° C | 78% | 1016.9 hPa | 0 mm | - | - | - |
| 1787749205 | 20.56° C | 90% | 1016.9 hPa | 0 mm | - | - | - |
| 1787745605 | 18.33° C | 98% | 1017.2 hPa | 0 mm | - | - | - |
| 1787742005 | 18.33° C | 98% | 1016.7 hPa | 0 mm | - | - | - |
| 1787738405 | 18.89° C | 96% | 1016.4 hPa | 0 mm | - | - | - |
| 1787734806 | 19.44° C | 92% | 1016.1 hPa | 0 mm | - | - | - |
| 1787731206 | 18.89° C | 95% | 1016.2 hPa | 0 mm | - | - | - |
| 1787727606 | 19.44° C | 93% | 1016.4 hPa | 0 mm | - | - | - |
| 1787724006 | 20.56° C | 88% | 1016.5 hPa | 0 mm | - | - | - |
| 1787720406 | 21.11° C | 85% | 1016.8 hPa | 0 mm | - | - | - |
| 1787716806 | 21.67° C | 80% | 1016.8 hPa | 0 mm | - | - | - |
| 1787713206 | 22.22° C | 76% | 1016.8 hPa | 0 mm | - | - | - |
| 1787709606 | 22.78° C | 73% | 1016 hPa | 0 mm | - | - | - |
| 1787706006 | 24.44° C | 63% | 1015.3 hPa | 0 mm | - | - | - |
| 1787702406 | 26.67° C | 61% | 1014.7 hPa | 0 mm | - | - | - |
* Rain latest hour (hover to see other rain measurements)
** Current wind speed in m/s (hover to see current wind gust speed)